Time;durP1;ratioP1;P1;durP2;ratioP2;P2;SDS_P1;SDS_P2;PMS_P1;PMS_P2;Temp;Humidity;BMP_temperature;BMP_pressure;BME280_temperature;BME280_humidity;BME280_pressure;Samples;Min_cycle;Max_cycle;Signal;HPM_P1;HPM_P2
2020/12/01 00:02:06;;;;;;;5.97;2.53;;;;;13.90;101033.00;;;;5080891;28;20214;-80
2020/12/01 00:04:32;;;;;;;3.35;2.10;;;;;13.90;101032.00;;;;5070639;28;20188;-80
2020/12/01 00:07:00;;;;;;;4.03;1.60;;;;;13.90;101017.00;;;;5081704;28;20202;-80
2020/12/01 00:09:27;;;;;;;2.40;1.15;;;;;13.80;101027.00;;;;5071745;28;20198;-81
2020/12/01 00:11:53;;;;;;;2.25;0.88;;;;;13.70;101045.00;;;;5074061;28;20201;-81
2020/12/01 00:14:20;;;;;;;1.58;0.80;;;;;13.60;101037.00;;;;5082455;28;20205;-80
2020/12/01 00:16:47;;;;;;;1.58;0.52;;;;;13.50;101049.00;;;;5101590;28;20194;-81
2020/12/01 00:19:14;;;;;;;2.20;0.50;;;;;13.40;101043.00;;;;5108815;28;20198;-80
2020/12/01 00:21:43;;;;;;;1.25;0.63;;;;;13.30;101055.00;;;;5089160;28;20214;-80
2020/12/01 00:24:11;;;;;;;0.80;0.30;;;;;13.30;101055.00;;;;5084380;28;20729;-80
2020/12/01 00:26:37;;;;;;;0.52;0.20;;;;;13.20;101053.00;;;;5089173;28;20698;-80
2020/12/01 00:29:05;;;;;;;1.10;0.28;;;;;13.20;101059.00;;;;5076842;28;20195;-81
2020/12/01 00:31:37;;;;;;;1.85;0.30;;;;;13.20;101055.00;;;;5067728;28;20210;-80
2020/12/01 00:34:04;;;;;;;1.70;0.25;;;;;13.20;101058.00;;;;5069089;28;20216;-81
2020/12/01 00:36:31;;;;;;;3.47;0.63;;;;;13.20;101058.00;;;;5087116;28;20648;-80
2020/12/01 00:38:58;;;;;;;0.80;0.10;;;;;13.20;101053.00;;;;5086906;28;20214;-81
2020/12/01 00:41:25;;;;;;;2.17;0.47;;;;;13.20;101066.00;;;;5070339;28;20226;-80
2020/12/01 00:43:52;;;;;;;1.63;0.60;;;;;13.20;101060.00;;;;5073283;28;20198;-80
2020/12/01 00:46:19;;;;;;;4.03;0.70;;;;;13.20;101062.00;;;;5088063;28;20214;-80
2020/12/01 00:48:46;;;;;;;2.90;0.43;;;;;13.20;101065.00;;;;5069042;28;20222;-80
2020/12/01 00:51:14;;;;;;;4.35;0.50;;;;;13.30;101056.00;;;;5071526;28;20186;-80
2020/12/01 00:53:40;;;;;;;1.83;0.60;;;;;13.30;101056.00;;;;5079388;28;20198;-80
2020/12/01 00:56:08;;;;;;;3.08;0.80;;;;;13.20;101057.00;;;;5075939;28;20202;-81
2020/12/01 00:58:36;;;;;;;3.55;0.82;;;;;13.20;101061.00;;;;5087370;28;20226;-81
2020/12/01 01:01:03;;;;;;;2.42;0.50;;;;;13.20;101057.00;;;;5076372;28;20219;-80
2020/12/01 01:03:30;;;;;;;2.00;0.47;;;;;13.30;101063.00;;;;5069349;28;21034;-80
2020/12/01 01:05:57;;;;;;;3.42;0.95;;;;;13.20;101059.00;;;;5076386;28;20199;-80
2020/12/01 01:08:23;;;;;;;8.25;1.15;;;;;13.20;101062.00;;;;5088147;28;20255;-80
2020/12/01 01:10:53;;;;;;;2.75;0.43;;;;;13.20;101065.00;;;;5100139;28;20212;-80
2020/12/01 01:13:19;;;;;;;1.70;0.57;;;;;13.20;101063.00;;;;5087043;28;20229;-80
2020/12/01 01:15:47;;;;;;;6.97;0.50;;;;;13.20;101065.00;;;;5075454;28;20191;-80
2020/12/01 01:18:14;;;;;;;3.15;0.98;;;;;13.20;101070.00;;;;5079948;28;20206;-80
2020/12/01 01:20:40;;;;;;;3.03;0.90;;;;;13.20;101071.00;;;;5066772;28;20222;-80
2020/12/01 01:23:07;;;;;;;3.33;0.57;;;;;13.20;101076.00;;;;5072647;28;20209;-80
2020/12/01 01:25:34;;;;;;;2.90;0.47;;;;;13.20;101070.00;;;;5087522;28;20210;-79
2020/12/01 01:28:01;;;;;;;5.28;1.27;;;;;13.20;101077.00;;;;5084562;28;20660;-80
2020/12/01 01:30:27;;;;;;;3.10;0.70;;;;;13.20;101068.00;;;;5083896;28;20202;-79
2020/12/01 01:32:55;;;;;;;7.05;0.90;;;;;13.20;101069.00;;;;5082629;28;20558;-80
2020/12/01 01:35:21;;;;;;;3.30;0.50;;;;;13.20;101074.00;;;;5078839;28;20468;-80
2020/12/01 01:37:48;;;;;;;4.32;0.80;;;;;13.20;101073.00;;;;5084145;28;20203;-80
2020/12/01 01:40:19;;;;;;;5.80;1.17;;;;;13.20;101074.00;;;;5084014;28;20202;-80
2020/12/01 01:42:46;;;;;;;1.80;0.40;;;;;13.30;101078.00;;;;5077952;28;20187;-80
2020/12/01 01:45:12;;;;;;;6.13;0.80;;;;;13.30;101071.00;;;;5067179;28;20187;-80
2020/12/01 01:47:41;;;;;;;2.35;0.60;;;;;13.30;101074.00;;;;5075731;28;20747;-80
2020/12/01 01:50:15;;;;;;;2.10;0.75;;;;;13.20;101083.00;;;;5087207;28;20695;-79
2020/12/01 01:52:45;;;;;;;2.72;0.43;;;;;13.20;101076.00;;;;5081339;28;20198;-80
2020/12/01 01:55:14;;;;;;;5.00;0.30;;;;;13.20;101074.00;;;;5069695;28;20205;-80
2020/12/01 01:57:46;;;;;;;2.42;0.90;;;;;13.20;101067.00;;;;5084996;28;20607;-80
2020/12/01 02:00:32;;;;;;;4.45;0.85;;;;;13.20;101068.00;;;;5087184;28;21058;-80
2020/12/01 02:02:59;;;;;;;4.90;0.63;;;;;13.20;101069.00;;;;5090875;28;20202;-79
2020/12/01 02:05:27;;;;;;;2.85;0.55;;;;;13.20;101067.00;;;;5085859;28;20206;-80
2020/12/01 02:07:53;;;;;;;4.10;0.70;;;;;13.20;101069.00;;;;5079898;28;20210;-80
2020/12/01 02:10:20;;;;;;;1.35;0.32;;;;;13.20;101064.00;;;;5090453;28;20194;-80
2020/12/01 02:12:49;;;;;;;3.50;0.95;;;;;13.20;101064.00;;;;5075807;28;20579;-80
2020/12/01 02:15:16;;;;;;;4.18;0.47;;;;;13.20;101062.00;;;;5081595;28;20202;-80
2020/12/01 02:17:44;;;;;;;2.75;0.73;;;;;13.20;101062.00;;;;5079923;28;20186;-80
2020/12/01 02:20:14;;;;;;;2.70;0.65;;;;;13.10;101064.00;;;;5086084;28;20202;-80
2020/12/01 02:22:45;;;;;;;2.05;0.40;;;;;13.10;101061.00;;;;5085690;28;20217;-79
2020/12/01 02:25:13;;;;;;;2.50;0.50;;;;;13.10;101064.00;;;;5083847;28;20187;-80
2020/12/01 02:27:41;;;;;;;3.20;0.50;;;;;13.10;101056.00;;;;5073994;28;20202;-79
2020/12/01 02:30:11;;;;;;;1.77;0.40;;;;;13.10;101057.00;;;;5090595;28;20225;-79
2020/12/01 02:32:39;;;;;;;1.52;0.40;;;;;13.10;101059.00;;;;5088838;28;20197;-80
2020/12/01 02:35:10;;;;;;;0.93;0.32;;;;;13.10;101051.00;;;;5089050;28;20195;-80
2020/12/01 02:37:38;;;;;;;5.00;0.55;;;;;13.00;101049.00;;;;5089397;28;20743;-79
2020/12/01 02:40:07;;;;;;;2.97;0.50;;;;;13.00;101057.00;;;;5080225;28;20203;-79
2020/12/01 02:42:33;;;;;;;5.05;0.93;;;;;13.00;101050.00;;;;5069516;28;20293;-79
2020/12/01 02:45:01;;;;;;;3.72;1.05;;;;;13.00;101052.00;;;;5082942;28;20199;-79
2020/12/01 02:47:28;;;;;;;4.50;0.73;;;;;13.00;101044.00;;;;5089840;28;20221;-80
2020/12/01 02:49:55;;;;;;;3.95;0.63;;;;;13.00;101054.00;;;;5087289;28;20191;-79
2020/12/01 02:52:23;;;;;;;6.22;0.75;;;;;13.00;101047.00;;;;5074391;28;20207;-79
2020/12/01 02:54:50;;;;;;;6.50;1.17;;;;;12.90;101056.00;;;;5070993;28;20198;-80
2020/12/01 02:57:17;;;;;;;4.28;0.88;;;;;12.90;101054.00;;;;5090839;28;20359;-80
2020/12/01 02:59:44;;;;;;;3.90;0.40;;;;;12.90;101054.00;;;;5087341;28;20686;-80
2020/12/01 03:02:11;;;;;;;4.35;0.70;;;;;12.90;101058.00;;;;5077321;28;20635;-80
2020/12/01 03:04:38;;;;;;;1.25;0.60;;;;;12.90;101055.00;;;;5089546;28;20209;-79
2020/12/01 03:07:05;;;;;;;3.28;0.60;;;;;12.90;101055.00;;;;5097163;28;20202;-80
2020/12/01 03:09:31;;;;;;;3.53;0.47;;;;;12.90;101054.00;;;;5089332;28;20205;-80
2020/12/01 03:11:58;;;;;;;2.13;0.40;;;;;12.90;101052.00;;;;5089276;28;20216;-80
2020/12/01 03:14:25;;;;;;;2.22;0.55;;;;;12.90;101056.00;;;;5086514;28;20649;-79
2020/12/01 03:16:52;;;;;;;3.80;0.40;;;;;12.90;101054.00;;;;5089857;28;20209;-80
2020/12/01 03:19:21;;;;;;;3.05;0.40;;;;;12.90;101052.00;;;;5086588;28;20201;-80
2020/12/01 03:21:48;;;;;;;1.55;0.20;;;;;12.90;101050.00;;;;5090318;28;20684;-80
2020/12/01 03:24:15;;;;;;;1.17;0.47;;;;;12.90;101051.00;;;;5090054;28;20301;-80
2020/12/01 03:26:43;;;;;;;3.47;0.73;;;;;12.90;101046.00;;;;5089162;28;20198;-80
2020/12/01 03:29:10;;;;;;;1.40;0.20;;;;;12.90;101041.00;;;;5084363;28;20699;-80
2020/12/01 03:31:36;;;;;;;1.55;0.30;;;;;12.90;101039.00;;;;5071821;28;20203;-79
2020/12/01 03:34:03;;;;;;;2.83;0.55;;;;;12.80;101042.00;;;;5069584;28;20592;-80
2020/12/01 03:36:31;;;;;;;4.15;0.82;;;;;12.80;101033.00;;;;5086321;28;20487;-80
2020/12/01 03:38:57;;;;;;;2.15;0.30;;;;;12.80;101039.00;;;;5077938;28;20209;-79
2020/12/01 03:41:24;;;;;;;2.55;0.60;;;;;12.80;101036.00;;;;5078693;28;20217;-79
2020/12/01 03:43:51;;;;;;;1.42;0.43;;;;;12.80;101034.00;;;;5085296;28;20195;-80
2020/12/01 03:46:18;;;;;;;2.33;0.25;;;;;12.80;101036.00;;;;5072805;28;20217;-80
2020/12/01 03:48:45;;;;;;;1.92;0.40;;;;;12.80;101033.00;;;;5087603;28;20194;-80
2020/12/01 03:51:12;;;;;;;2.75;0.70;;;;;12.70;101030.00;;;;5088577;28;20194;-80
2020/12/01 03:53:39;;;;;;;2.08;0.10;;;;;12.70;101023.00;;;;5085967;28;20647;-80
2020/12/01 03:56:06;;;;;;;1.10;0.38;;;;;12.80;101021.00;;;;5072916;28;20563;-79
2020/12/01 03:58:33;;;;;;;0.55;0.30;;;;;12.80;101030.00;;;;5075677;28;20229;-80
2020/12/01 04:01:00;;;;;;;2.20;0.43;;;;;12.80;101026.00;;;;5068465;28;20219;-79
2020/12/01 04:03:27;;;;;;;0.95;0.20;;;;;12.80;101025.00;;;;5075482;28;20760;-80
2020/12/01 04:05:53;;;;;;;2.47;0.35;;;;;12.80;101024.00;;;;5088871;28;20690;-80
2020/12/01 04:08:20;;;;;;;0.85;0.20;;;;;12.80;101019.00;;;;5081041;28;20205;-79
2020/12/01 04:10:48;;;;;;;3.65;0.55;;;;;12.80;101022.00;;;;5076761;28;20198;-80
2020/12/01 04:13:14;;;;;;;2.03;0.50;;;;;12.80;101028.00;;;;5093498;28;20190;-80
2020/12/01 04:15:41;;;;;;;1.83;0.38;;;;;12.80;101029.00;;;;5076935;28;20191;-80
2020/12/01 04:18:08;;;;;;;0.85;0.40;;;;;12.90;101028.00;;;;5078235;28;20202;-79
2020/12/01 04:20:34;;;;;;;1.88;0.40;;;;;12.90;101024.00;;;;5086747;28;20552;-80
2020/12/01 04:23:01;;;;;;;1.00;0.20;;;;;12.90;101026.00;;;;5088375;28;20198;-79
2020/12/01 04:25:28;;;;;;;1.58;0.35;;;;;12.90;101030.00;;;;5080520;28;20198;-79
2020/12/01 04:27:56;;;;;;;1.60;0.40;;;;;12.90;101022.00;;;;5084785;28;20186;-79
2020/12/01 04:30:23;;;;;;;1.77;0.38;;;;;12.90;101023.00;;;;5067707;28;20202;-80
2020/12/01 04:32:50;;;;;;;1.60;0.68;;;;;13.00;101024.00;;;;5069851;28;20610;-80
2020/12/01 04:35:17;;;;;;;8.68;0.63;;;;;13.00;101029.00;;;;5088026;28;20288;-80
2020/12/01 04:37:44;;;;;;;0.52;0.30;;;;;13.00;101024.00;;;;5080575;28;20202;-80
2020/12/01 04:40:14;;;;;;;1.98;0.47;;;;;13.00;101034.00;;;;5086480;28;20578;-79
2020/12/01 04:42:47;;;;;;;1.70;0.50;;;;;13.00;101027.00;;;;5072636;28;20234;-79
2020/12/01 04:45:15;;;;;;;0.95;0.47;;;;;13.00;101029.00;;;;5068137;28;20617;-79
2020/12/01 04:47:57;;;;;;;1.40;0.30;;;;;13.00;101037.00;;;;5067029;28;20222;-80
2020/12/01 04:50:32;;;;;;;0.73;0.30;;;;;13.00;101031.00;;;;5096936;28;20197;-80
2020/12/01 04:53:39;;;;;;;1.83;0.25;;;;;13.00;101037.00;;;;5084450;28;20555;-79
2020/12/01 04:56:37;;;;;;;1.85;0.20;;;;;13.00;101047.00;;;;5075945;28;20198;-79
2020/12/01 04:59:44;;;;;;;2.28;0.50;;;;;13.00;101033.00;;;;5079433;28;20222;-80
2020/12/01 05:02:40;;;;;;;3.20;0.68;;;;;13.00;101036.00;;;;5069117;28;20222;-79
2020/12/01 05:05:22;;;;;;;0.88;0.13;;;;;13.10;101040.00;;;;5082797;28;20205;-80
2020/12/01 05:08:11;;;;;;;0.55;0.30;;;;;13.10;101047.00;;;;5068957;28;20194;-80
2020/12/01 05:10:43;;;;;;;1.63;0.50;;;;;13.10;101059.00;;;;5067691;28;20203;-80
2020/12/01 05:13:20;;;;;;;0.70;0.20;;;;;13.10;101057.00;;;;5072862;28;20199;-80
2020/12/01 05:15:50;;;;;;;0.98;0.50;;;;;13.20;101058.00;;;;5072425;28;20622;-80
2020/12/01 05:18:21;;;;;;;1.63;0.30;;;;;13.20;101057.00;;;;5083480;28;20190;-80
2020/12/01 05:20:49;;;;;;;3.22;0.30;;;;;13.20;101059.00;;;;5072631;28;20253;-80
2020/12/01 05:23:20;;;;;;;1.60;0.40;;;;;13.20;101056.00;;;;5067966;28;20210;-80
2020/12/01 05:25:58;;;;;;;0.77;0.28;;;;;13.10;101060.00;;;;5083144;28;20198;-80
2020/12/01 05:28:25;;;;;;;0.50;0.30;;;;;13.20;101060.00;;;;5085354;28;20248;-80
2020/12/01 05:31:00;;;;;;;1.23;0.25;;;;;13.20;101076.00;;;;5087535;28;20198;-80
2020/12/01 05:33:29;;;;;;;1.38;0.40;;;;;13.20;101073.00;;;;5083973;28;20201;-80
2020/12/01 05:36:02;;;;;;;0.60;0.20;;;;;13.20;101073.00;;;;5087294;28;21059;-80
2020/12/01 05:38:30;;;;;;;1.15;0.50;;;;;13.30;101081.00;;;;5084641;28;20293;-80
2020/12/01 05:40:59;;;;;;;1.27;0.40;;;;;13.30;101085.00;;;;5080027;28;20230;-80
2020/12/01 05:43:32;;;;;;;1.15;0.50;;;;;13.30;101082.00;;;;5076925;28;20198;-80
2020/12/01 05:46:10;;;;;;;0.98;0.25;;;;;13.20;101089.00;;;;5095356;28;20225;-80
2020/12/01 05:48:58;;;;;;;0.25;0.10;;;;;13.20;101093.00;;;;5095346;28;20597;-80
2020/12/01 05:51:34;;;;;;;0.22;0.10;;;;;13.30;101089.00;;;;5092394;28;20201;-80
2020/12/01 05:54:02;;;;;;;0.52;0.22;;;;;13.40;101104.00;;;;5090403;28;20238;-80
2020/12/01 05:56:28;;;;;;;1.73;0.30;;;;;13.40;101106.00;;;;5091080;28;20206;-80
2020/12/01 05:59:00;;;;;;;1.27;0.25;;;;;13.40;101105.00;;;;5077551;28;20629;-81
2020/12/01 06:01:27;;;;;;;0.30;0.13;;;;;13.50;101109.00;;;;5073087;28;20257;-79
2020/12/01 06:04:18;;;;;;;0.95;0.15;;;;;13.40;101112.00;;;;5088755;28;20203;-80
2020/12/01 06:06:56;;;;;;;1.00;0.22;;;;;13.50;101118.00;;;;5089656;28;20194;-80
2020/12/01 06:09:42;;;;;;;0.35;0.05;;;;;13.50;101122.00;;;;5078375;28;20201;-79
2020/12/01 06:12:19;;;;;;;0.65;0.22;;;;;13.50;101127.00;;;;5070043;28;20198;-79
2020/12/01 06:14:55;;;;;;;1.08;0.10;;;;;13.60;101126.00;;;;5089640;28;20586;-80
2020/12/01 06:17:28;;;;;;;0.32;0.10;;;;;13.60;101127.00;;;;5104252;28;20197;-80
2020/12/01 06:20:03;;;;;;;2.05;0.30;;;;;13.70;101135.00;;;;5089098;28;20190;-79
2020/12/01 06:22:55;;;;;;;0.93;0.20;;;;;13.70;101141.00;;;;5098150;28;20713;-80
2020/12/01 06:25:47;;;;;;;0.95;0.35;;;;;13.70;101159.00;;;;5084065;28;20218;-80
2020/12/01 06:28:43;;;;;;;0.38;0.15;;;;;13.70;101151.00;;;;5077944;28;20198;-80
2020/12/01 06:31:41;;;;;;;2.60;0.45;;;;;13.80;101160.00;;;;5070611;28;20210;-79
2020/12/01 06:34:42;;;;;;;1.48;0.28;;;;;13.80;101160.00;;;;5065770;28;20206;-80
2020/12/01 06:37:28;;;;;;;2.58;0.40;;;;;13.80;101169.00;;;;5088646;28;20193;-80
2020/12/01 06:40:11;;;;;;;0.57;0.10;;;;;13.80;101163.00;;;;5085820;28;20205;-80
2020/12/01 06:42:41;;;;;;;2.70;0.17;;;;;13.80;101160.00;;;;5087269;28;20241;-81
2020/12/01 06:45:23;;;;;;;0.70;0.10;;;;;13.80;101177.00;;;;5086686;28;20223;-81
2020/12/01 06:47:53;;;;;;;1.45;0.25;;;;;13.90;101179.00;;;;5071729;28;20206;-80
2020/12/01 06:50:22;;;;;;;0.75;0.20;;;;;13.90;101181.00;;;;5082937;28;20206;-80
2020/12/01 06:52:58;;;;;;;1.00;0.20;;;;;13.80;101196.00;;;;5087194;28;20201;-79
2020/12/01 06:55:50;;;;;;;3.60;0.43;;;;;13.80;101192.00;;;;5092109;28;20201;-81
2020/12/01 06:58:22;;;;;;;6.47;0.85;;;;;13.90;101216.00;;;;5077879;28;20910;-81
2020/12/01 07:00:49;;;;;;;4.93;0.80;;;;;13.90;101219.00;;;;5070156;28;20195;-80
2020/12/01 07:03:23;;;;;;;8.05;0.93;;;;;13.80;101224.00;;;;5069534;28;20672;-80
2020/12/01 07:05:50;;;;;;;5.10;0.85;;;;;13.90;101217.00;;;;5070075;28;20209;-80
2020/12/01 07:08:27;;;;;;;6.05;1.20;;;;;13.80;101229.00;;;;5070390;28;20210;-80
2020/12/01 07:11:06;;;;;;;5.03;0.93;;;;;13.80;101238.00;;;;5073614;28;20225;-80
2020/12/01 07:13:41;;;;;;;4.30;1.23;;;;;13.80;101246.00;;;;5068720;28;20668;-80
2020/12/01 07:16:20;;;;;;;7.22;1.23;;;;;13.80;101250.00;;;;5073821;28;20224;-80
2020/12/01 07:18:48;;;;;;;5.88;1.50;;;;;13.80;101246.00;;;;5069908;28;20198;-80
2020/12/01 07:21:24;;;;;;;7.22;1.10;;;;;13.70;101260.00;;;;5069082;28;20237;-79
2020/12/01 07:24:02;;;;;;;8.65;1.45;;;;;13.70;101255.00;;;;5068268;28;20210;-80
2020/12/01 07:26:38;;;;;;;7.95;1.23;;;;;13.70;101267.00;;;;5068442;28;20199;-80
2020/12/01 07:29:33;;;;;;;4.32;1.30;;;;;13.70;101258.00;;;;5089387;28;20555;-80
2020/12/01 07:32:15;;;;;;;5.47;1.30;;;;;13.70;101271.00;;;;5088335;28;20225;-80
2020/12/01 07:34:42;;;;;;;10.68;1.50;;;;;13.80;101263.00;;;;5071412;28;20206;-80
2020/12/01 07:37:30;;;;;;;5.43;1.08;;;;;13.70;101277.00;;;;5069767;28;20206;-80
2020/12/01 07:40:00;;;;;;;4.93;0.88;;;;;13.70;101284.00;;;;5069229;28;20856;-80
2020/12/01 07:42:30;;;;;;;10.85;1.40;;;;;13.80;101282.00;;;;5069065;28;20231;-80
2020/12/01 07:44:57;;;;;;;8.50;1.60;;;;;13.80;101290.00;;;;5080154;28;20230;-80
2020/12/01 07:47:26;;;;;;;10.85;1.75;;;;;13.80;101283.00;;;;5089758;28;20233;-80
2020/12/01 07:49:58;;;;;;;6.53;1.85;;;;;13.80;101286.00;;;;5087104;28;20198;-80
2020/12/01 07:52:32;;;;;;;11.15;1.98;;;;;13.80;101297.00;;;;5069089;28;20203;-79
2020/12/01 07:55:04;;;;;;;4.50;1.00;;;;;13.80;101295.00;;;;5067471;28;20256;-79
2020/12/01 07:57:31;;;;;;;6.70;1.48;;;;;13.80;101303.00;;;;5067291;28;20230;-80
2020/12/01 08:00:01;;;;;;;6.45;1.20;;;;;13.80;101311.00;;;;5068427;28;20210;-81
2020/12/01 08:02:30;;;;;;;6.38;1.33;;;;;13.80;101309.00;;;;5077933;28;20521;-80
2020/12/01 08:05:01;;;;;;;7.65;1.63;;;;;13.80;101314.00;;;;5066358;28;20206;-81
2020/12/01 08:07:28;;;;;;;8.90;1.63;;;;;13.90;101320.00;;;;5069161;28;20206;-81
2020/12/01 08:10:03;;;;;;;5.50;1.45;;;;;13.80;101332.00;;;;5071487;28;20202;-81
2020/12/01 08:12:35;;;;;;;8.35;1.45;;;;;13.80;101329.00;;;;5070680;28;20201;-80
2020/12/01 08:15:04;;;;;;;5.25;1.70;;;;;13.80;101322.00;;;;5077683;28;20202;-80
2020/12/01 08:17:33;;;;;;;8.20;1.08;;;;;13.90;101325.00;;;;5089066;28;20201;-80
2020/12/01 08:20:01;;;;;;;8.93;1.10;;;;;13.90;101330.00;;;;5084522;28;20221;-81
2020/12/01 08:22:33;;;;;;;6.72;2.00;;;;;13.90;101329.00;;;;5094502;28;20232;-80
2020/12/01 08:25:04;;;;;;;6.40;1.23;;;;;13.90;101343.00;;;;5089108;28;20206;-80
2020/12/01 08:27:38;;;;;;;5.82;0.85;;;;;13.90;101333.00;;;;5078605;28;20202;-80
2020/12/01 08:30:14;;;;;;;7.93;1.55;;;;;13.90;101355.00;;;;5073477;28;20201;-80
2020/12/01 08:32:43;;;;;;;5.70;1.33;;;;;14.00;101360.00;;;;5069073;28;20533;-79
2020/12/01 08:35:21;;;;;;;11.40;1.17;;;;;13.90;101346.00;;;;5072771;28;20225;-80
2020/12/01 08:37:56;;;;;;;6.35;1.33;;;;;14.00;101359.00;;;;5089623;28;20194;-79
2020/12/01 08:40:32;;;;;;;9.35;1.98;;;;;13.90;101367.00;;;;5079360;28;20205;-80
2020/12/01 08:43:14;;;;;;;8.20;2.13;;;;;14.00;101364.00;;;;5068260;28;20711;-80
2020/12/01 08:45:50;;;;;;;10.93;1.45;;;;;14.00;101365.00;;;;5070176;28;20183;-79
2020/12/01 08:48:23;;;;;;;10.55;1.80;;;;;14.00;101369.00;;;;5081532;28;20195;-79
2020/12/01 08:50:59;;;;;;;3.03;0.90;;;;;14.00;101376.00;;;;5080082;28;20205;-79
2020/12/01 08:53:26;;;;;;;7.20;1.60;;;;;14.00;101377.00;;;;5086839;28;20235;-80
2020/12/01 08:55:56;;;;;;;9.40;1.58;;;;;14.00;101382.00;;;;5076135;28;20325;-79
2020/12/01 08:58:34;;;;;;;7.50;1.45;;;;;14.00;101381.00;;;;5078692;28;20222;-79
2020/12/01 09:01:06;;;;;;;5.32;1.17;;;;;14.00;101393.00;;;;5078101;28;20658;-79
2020/12/01 09:03:35;;;;;;;5.88;1.38;;;;;14.10;101395.00;;;;5082466;28;20661;-79
2020/12/01 09:06:03;;;;;;;9.63;1.20;;;;;14.10;101405.00;;;;5068041;28;20202;-79
2020/12/01 09:08:44;;;;;;;9.40;1.58;;;;;14.10;101399.00;;;;5072179;28;20715;-80
2020/12/01 09:14:17;;;;;;;7.65;1.30;;;;;14.10;101408.00;;;;5072814;28;20210;-79
2020/12/01 09:17:01;;;;;;;7.00;1.27;;;;;14.00;101411.00;;;;5075231;28;20194;-79
2020/12/01 09:19:50;;;;;;;6.30;1.23;;;;;14.10;101411.00;;;;5072399;28;20201;-79
2020/12/01 09:22:27;;;;;;;3.00;0.70;;;;;14.00;101420.00;;;;5076355;28;20291;-79
2020/12/01 09:25:13;;;;;;;6.68;1.08;;;;;14.00;101422.00;;;;5074750;28;20193;-79
2020/12/01 09:27:41;;;;;;;9.00;1.48;;;;;14.10;101419.00;;;;5084085;28;20217;-79
2020/12/01 09:30:25;;;;;;;11.75;1.80;;;;;14.10;101429.00;;;;5085819;28;20684;-79
2020/12/01 09:32:53;;;;;;;10.02;1.13;;;;;14.10;101426.00;;;;5072505;28;20588;-79
2020/12/01 09:35:19;;;;;;;9.75;2.50;;;;;14.10;101427.00;;;;5071240;28;20201;-79
2020/12/01 09:37:46;;;;;;;5.55;1.48;;;;;14.20;101427.00;;;;5086220;28;20469;-79
2020/12/01 09:40:13;;;;;;;5.22;1.77;;;;;14.20;101435.00;;;;5088334;28;20198;-80
2020/12/01 09:42:41;;;;;;;10.35;2.25;;;;;14.20;101439.00;;;;5072402;28;20223;-78
2020/12/01 09:45:16;;;;;;;9.38;1.67;;;;;14.20;101438.00;;;;5084851;28;20640;-79
2020/12/01 09:47:45;;;;;;;8.80;1.38;;;;;14.20;101444.00;;;;5082421;28;20211;-80
2020/12/01 09:50:17;;;;;;;6.78;1.25;;;;;14.20;101445.00;;;;5088224;28;20660;-79
2020/12/01 10:09:35;;;;;;;7.70;0.93;;;;;14.30;101466.00;;;;5075323;28;20582;-79
2020/12/01 10:12:15;;;;;;;8.43;1.15;;;;;14.30;101471.00;;;;5087003;28;20656;-79
2020/12/01 10:37:24;;;;;;;5.55;1.25;;;;;14.50;101475.00;;;;5072100;28;20205;-79
2020/12/01 10:39:51;;;;;;;5.03;1.10;;;;;14.50;101481.00;;;;5088492;28;20671;-78
2020/12/01 10:42:18;;;;;;;7.88;1.80;;;;;14.50;101476.00;;;;5077998;28;20703;-78
2020/12/01 10:44:45;;;;;;;6.72;1.27;;;;;14.50;101482.00;;;;5108812;28;20194;-78
2020/12/01 10:47:12;;;;;;;4.95;1.50;;;;;14.50;101476.00;;;;5094010;28;20721;-79
2020/12/01 10:49:39;;;;;;;10.82;1.58;;;;;14.50;101479.00;;;;5086269;28;20206;-78
2020/12/01 10:52:06;;;;;;;8.77;1.02;;;;;14.50;101477.00;;;;5088444;28;20236;-78
2020/12/01 10:54:33;;;;;;;6.15;1.25;;;;;14.50;101475.00;;;;5084803;28;20695;-78
2020/12/01 10:57:01;;;;;;;7.18;1.02;;;;;14.50;101483.00;;;;5080513;28;20281;-78
2020/12/01 10:59:28;;;;;;;6.68;1.17;;;;;14.50;101488.00;;;;5089642;28;20198;-78
2020/12/01 11:01:54;;;;;;;5.95;1.23;;;;;14.50;101474.00;;;;5077149;28;20288;-78
2020/12/01 11:04:22;;;;;;;3.50;1.17;;;;;14.50;101472.00;;;;5071715;28;20672;-78
2020/12/01 11:06:49;;;;;;;5.82;0.88;;;;;14.50;101483.00;;;;5080290;28;20207;-79
2020/12/01 11:09:16;;;;;;;7.22;1.48;;;;;14.50;101478.00;;;;5090574;28;20213;-78
2020/12/01 11:11:43;;;;;;;6.45;1.27;;;;;14.50;101476.00;;;;5077492;28;20203;-78
2020/12/01 11:14:11;;;;;;;5.63;1.65;;;;;14.50;101483.00;;;;5082218;28;20198;-78
2020/12/01 11:16:38;;;;;;;7.18;1.27;;;;;14.50;101483.00;;;;5084454;28;20198;-78
2020/12/01 11:19:05;;;;;;;3.67;0.80;;;;;14.50;101483.00;;;;5078877;28;20210;-78
2020/12/01 11:21:34;;;;;;;8.45;1.58;;;;;14.50;101489.00;;;;5071776;28;20206;-78
2020/12/01 11:24:01;;;;;;;5.95;0.80;;;;;14.50;101491.00;;;;5070465;28;20233;-78
2020/12/01 11:26:28;;;;;;;4.90;0.82;;;;;14.60;101490.00;;;;5080346;28;20211;-78
2020/12/01 11:28:55;;;;;;;5.15;1.00;;;;;14.50;101488.00;;;;5099567;28;20189;-78
2020/12/01 11:31:23;;;;;;;7.53;0.77;;;;;14.60;101490.00;;;;5081135;28;20201;-78
2020/12/01 11:34:01;;;;;;;7.82;1.35;;;;;14.60;101490.00;;;;5088306;28;20611;-78
2020/12/01 11:36:29;;;;;;;5.55;1.02;;;;;14.70;101505.00;;;;5068561;28;20221;-78
2020/12/01 11:38:56;;;;;;;6.93;1.45;;;;;14.70;101507.00;;;;5069708;28;20191;-78
2020/12/01 11:41:23;;;;;;;10.18;1.48;;;;;14.70;101498.00;;;;5073777;28;20198;-78
2020/12/01 11:43:50;;;;;;;6.88;0.93;;;;;14.70;101502.00;;;;5085999;28;20202;-77
2020/12/01 11:46:17;;;;;;;8.18;1.20;;;;;14.80;101510.00;;;;5089445;28;20214;-77
2020/12/01 11:48:45;;;;;;;6.22;1.00;;;;;14.80;101506.00;;;;5075649;28;20675;-80
2020/12/01 11:51:12;;;;;;;6.70;2.00;;;;;14.80;101512.00;;;;5069830;28;20206;-78
2020/12/01 11:53:39;;;;;;;8.05;1.23;;;;;14.90;101522.00;;;;5070225;28;20218;-78
2020/12/01 11:56:06;;;;;;;7.18;1.50;;;;;14.90;101517.00;;;;5069035;28;20203;-78
2020/12/01 11:58:33;;;;;;;10.48;1.52;;;;;14.90;101516.00;;;;5068802;28;20234;-78
2020/12/01 12:00:59;;;;;;;4.72;1.33;;;;;14.90;101510.00;;;;5076193;28;20203;-78
2020/12/01 12:03:26;;;;;;;4.00;0.95;;;;;14.90;101505.00;;;;5073800;28;20313;-78
2020/12/01 12:05:53;;;;;;;8.13;1.52;;;;;14.90;101508.00;;;;5067829;28;20206;-78
2020/12/01 12:08:20;;;;;;;8.63;1.77;;;;;15.00;101507.00;;;;5075138;28;20655;-78
2020/12/01 12:10:47;;;;;;;6.18;1.27;;;;;15.00;101521.00;;;;5075789;28;20754;-77
2020/12/01 12:13:14;;;;;;;7.10;1.50;;;;;15.00;101515.00;;;;5089880;28;20765;-77
2020/12/01 12:15:41;;;;;;;12.18;1.45;;;;;15.00;101517.00;;;;5082706;28;20198;-78
2020/12/01 12:18:07;;;;;;;4.85;1.23;;;;;15.00;101511.00;;;;5080941;28;20205;-77
2020/12/01 12:20:34;;;;;;;6.35;1.05;;;;;15.10;101509.00;;;;5082755;28;20656;-77
2020/12/01 12:23:02;;;;;;;4.80;1.42;;;;;15.10;101522.00;;;;5082132;28;20515;-77
2020/12/01 12:25:29;;;;;;;8.98;1.38;;;;;15.10;101513.00;;;;5078601;28;20197;-78
2020/12/01 12:27:55;;;;;;;6.45;0.80;;;;;15.10;101505.00;;;;5087979;28;20198;-76
2020/12/01 12:30:22;;;;;;;4.90;1.10;;;;;15.20;101514.00;;;;5070129;28;20191;-76
2020/12/01 12:32:49;;;;;;;8.65;1.05;;;;;15.20;101520.00;;;;5068727;28;20195;-77
2020/12/01 12:35:16;;;;;;;6.97;1.60;;;;;15.20;101509.00;;;;5085584;28;20206;-77
2020/12/01 12:37:42;;;;;;;7.07;1.63;;;;;15.30;101514.00;;;;5085481;28;20198;-77
2020/12/01 12:40:10;;;;;;;8.93;1.60;;;;;15.30;101515.00;;;;5082672;28;20195;-78
2020/12/01 12:42:37;;;;;;;7.43;1.58;;;;;15.30;101524.00;;;;5084724;28;20217;-77
2020/12/01 12:45:04;;;;;;;5.07;1.35;;;;;15.40;101510.00;;;;5073039;28;20203;-77
2020/12/01 12:47:31;;;;;;;7.22;1.30;;;;;15.40;101516.00;;;;5078035;28;20811;-77
2020/12/01 12:49:58;;;;;;;10.70;1.42;;;;;15.40;101508.00;;;;5087784;28;20565;-77
2020/12/01 12:52:25;;;;;;;3.90;0.80;;;;;15.50;101503.00;;;;5082609;28;20199;-77
2020/12/01 12:54:52;;;;;;;4.13;1.00;;;;;15.50;101512.00;;;;5083109;28;20194;-77
2020/12/01 12:57:19;;;;;;;6.88;1.35;;;;;15.50;101506.00;;;;5080992;28;20222;-77
2020/12/01 12:59:46;;;;;;;2.97;0.77;;;;;15.50;101513.00;;;;5067702;28;20199;-77
2020/12/01 13:02:12;;;;;;;4.75;1.00;;;;;15.50;101510.00;;;;5067747;28;20218;-77
2020/12/01 13:04:39;;;;;;;5.35;1.20;;;;;15.50;101511.00;;;;5067524;28;20198;-77
2020/12/01 13:07:07;;;;;;;6.28;1.23;;;;;15.50;101512.00;;;;5072140;28;20206;-76
2020/12/01 13:09:33;;;;;;;5.45;1.10;;;;;15.60;101510.00;;;;5076505;28;20579;-77